createdAt,value
2019-02-20T00:01:13.757Z,85.80
2019-02-20T00:03:41.603Z,85.50
2019-02-20T00:06:09.195Z,85.50
2019-02-20T00:08:36.809Z,85.30
2019-02-20T00:11:04.302Z,85.30
2019-02-20T00:13:31.787Z,85.60
2019-02-20T00:15:59.260Z,85.30
2019-02-20T00:18:26.808Z,85.30
2019-02-20T00:20:54.557Z,85.30
2019-02-20T00:23:22.204Z,85.30
2019-02-20T00:25:49.617Z,85.60
2019-02-20T00:28:17.611Z,85.30
2019-02-20T00:30:45.069Z,86.00
2019-02-20T00:33:12.480Z,86.40
2019-02-20T00:35:40.013Z,86.40
2019-02-20T00:38:07.468Z,86.60
2019-02-20T00:40:34.994Z,88.10
2019-02-20T00:43:03.410Z,88.40
2019-02-20T00:45:45.537Z,87.70
2019-02-20T00:48:28.571Z,89.00
2019-02-20T00:51:05.501Z,89.40
2019-02-20T00:53:38.013Z,89.00
2019-02-20T00:56:05.475Z,88.10
2019-02-20T00:58:32.897Z,87.90
2019-02-20T01:01:00.330Z,87.70
2019-02-20T01:03:27.765Z,87.30
2019-02-20T01:05:55.208Z,87.70
2019-02-20T01:08:22.629Z,87.90
2019-02-20T01:10:50.365Z,88.10
2019-02-20T01:13:17.913Z,87.90
2019-02-20T01:15:45.389Z,88.10
2019-02-20T01:18:12.946Z,87.70
2019-02-20T01:20:40.412Z,87.30
2019-02-20T01:23:08.004Z,87.30
2019-02-20T01:25:35.441Z,87.70
2019-02-20T01:28:02.901Z,87.90
2019-02-20T01:30:30.322Z,87.70
2019-02-20T01:32:57.857Z,87.50
2019-02-20T01:35:25.361Z,87.30
2019-02-20T01:37:52.832Z,87.50
2019-02-20T01:40:20.290Z,87.50
2019-02-20T01:42:47.718Z,87.70
2019-02-20T01:45:15.128Z,87.90
2019-02-20T01:47:42.595Z,87.90
2019-02-20T01:50:10.024Z,88.40
2019-02-20T01:52:37.477Z,89.20
2019-02-20T01:55:06.325Z,89.60
2019-02-20T01:57:33.774Z,89.60
2019-02-20T02:00:01.238Z,88.80
2019-02-20T02:02:28.769Z,89.40
2019-02-20T02:04:57.228Z,89.40
2019-02-20T02:07:25.634Z,89.60
2019-02-20T02:09:53.085Z,89.90
2019-02-20T02:12:21.076Z,89.70
2019-02-20T02:14:48.591Z,90.10
2019-02-20T02:17:15.990Z,89.90
2019-02-20T02:19:43.444Z,89.40
2019-02-20T02:22:10.876Z,88.80
2019-02-20T02:24:38.320Z,88.10
2019-02-20T02:27:06.778Z,88.20
2019-02-20T02:29:34.233Z,88.60
2019-02-20T02:32:01.678Z,88.60
2019-02-20T02:34:29.129Z,88.60
2019-02-20T02:36:57.596Z,88.40
2019-02-20T02:39:24.967Z,88.10
2019-02-20T02:41:52.386Z,88.10
2019-02-20T02:44:19.922Z,88.20
2019-02-20T02:46:47.369Z,88.10
2019-02-20T02:49:14.921Z,87.70
2019-02-20T02:51:42.372Z,87.10
2019-02-20T02:54:09.827Z,86.90
2019-02-20T02:56:37.276Z,86.80
2019-02-20T02:59:04.706Z,86.40
2019-02-20T03:01:32.174Z,86.40
2019-02-20T03:03:59.606Z,86.20
2019-02-20T03:06:28.082Z,86.40
2019-02-20T03:08:55.511Z,86.80
2019-02-20T03:11:22.985Z,87.30
2019-02-20T03:13:50.574Z,87.10
2019-02-20T03:16:18.069Z,87.30
2019-02-20T03:18:45.525Z,88.60
2019-02-20T03:21:13.018Z,88.40
2019-02-20T03:23:40.744Z,88.10
2019-02-20T03:26:08.370Z,88.10
2019-02-20T03:28:35.777Z,87.50
2019-02-20T03:31:03.249Z,86.90
2019-02-20T03:33:30.749Z,86.60
2019-02-20T03:35:58.213Z,86.40
2019-02-20T03:38:30.400Z,86.80
2019-02-20T03:40:55.214Z,88.10
2019-02-20T03:43:22.721Z,89.70
2019-02-20T03:45:50.162Z,90.60
2019-02-20T03:48:18.023Z,90.70
2019-02-20T03:50:45.971Z,90.30
2019-02-20T03:53:13.654Z,90.10
2019-02-20T03:55:41.277Z,89.90
2019-02-20T03:58:08.856Z,90.30
2019-02-20T04:00:36.521Z,90.40
2019-02-20T04:03:03.982Z,90.20
2019-02-20T04:05:31.436Z,90.10
2019-02-20T04:07:58.893Z,89.90
2019-02-20T04:10:26.340Z,89.60
2019-02-20T04:12:54.033Z,89.40
2019-02-20T04:15:21.835Z,89.00
2019-02-20T04:17:49.280Z,88.80
2019-02-20T04:20:17.045Z,88.60
2019-02-20T04:22:44.570Z,88.40
2019-02-20T04:25:12.132Z,87.90
2019-02-20T04:27:39.690Z,87.70
2019-02-20T04:30:07.247Z,87.70
2019-02-20T04:32:34.801Z,87.50
2019-02-20T04:35:02.205Z,87.50
2019-02-20T04:37:29.923Z,87.90
2019-02-20T04:39:57.374Z,87.90
2019-02-20T04:42:24.821Z,88.10
2019-02-20T04:44:52.236Z,88.40
2019-02-20T04:47:19.678Z,89.40
2019-02-20T04:49:47.855Z,89.20
2019-02-20T04:52:15.452Z,88.80
2019-02-20T04:54:42.918Z,89.40
2019-02-20T04:57:10.597Z,90.10
2019-02-20T04:59:38.185Z,90.40
2019-02-20T05:02:05.732Z,90.70
2019-02-20T05:04:33.190Z,90.90
2019-02-20T05:07:00.621Z,91.20
2019-02-20T05:09:28.112Z,91.60
2019-02-20T05:11:55.566Z,91.80
2019-02-20T05:14:23.137Z,91.90
2019-02-20T05:16:50.599Z,92.00
2019-02-20T05:19:18.173Z,92.40
2019-02-20T05:21:45.819Z,92.70
2019-02-20T05:24:23.800Z,93.00
2019-02-20T05:26:42.694Z,93.10
2019-02-20T05:29:10.236Z,92.80
2019-02-20T05:31:37.876Z,92.80
2019-02-20T05:34:05.378Z,92.40
2019-02-20T05:36:33.641Z,92.20
2019-02-20T05:39:01.317Z,92.00
2019-02-20T05:41:30.699Z,91.80
2019-02-20T05:43:58.278Z,91.70
2019-02-20T05:46:25.870Z,91.50
2019-02-20T05:48:53.481Z,91.20
2019-02-20T05:51:21.042Z,91.20
2019-02-20T05:53:48.471Z,91.10
2019-02-20T05:56:15.937Z,91.40
2019-02-20T05:58:43.414Z,91.10
2019-02-20T06:01:10.867Z,91.10
2019-02-20T06:03:38.484Z,90.90
2019-02-20T06:06:06.314Z,90.80
2019-02-20T06:08:33.887Z,90.90
2019-02-20T06:11:01.515Z,91.10
2019-02-20T06:13:29.122Z,91.00
2019-02-20T06:15:56.568Z,91.00
2019-02-20T06:18:24.062Z,90.90
2019-02-20T06:20:52.127Z,91.10
2019-02-20T06:23:19.721Z,91.20
2019-02-20T06:25:47.561Z,91.00
2019-02-20T06:28:15.165Z,91.10
2019-02-20T06:30:42.626Z,91.30
2019-02-20T06:33:10.228Z,91.60
2019-02-20T06:35:37.707Z,92.50
2019-02-20T06:38:05.139Z,92.80
2019-02-20T06:40:32.641Z,93.20
2019-02-20T06:43:00.098Z,92.80
2019-02-20T06:45:27.674Z,92.60
2019-02-20T06:47:55.347Z,92.30
2019-02-20T06:50:22.869Z,91.80
2019-02-20T06:52:50.300Z,91.30
2019-02-20T06:55:17.761Z,91.00
2019-02-20T06:57:45.229Z,90.80
2019-02-20T07:00:12.720Z,90.70
2019-02-20T07:02:40.591Z,90.30
2019-02-20T07:05:28.667Z,90.20
2019-02-20T07:08:40.227Z,89.70
2019-02-20T07:11:32.857Z,90.70
2019-02-20T07:14:15.098Z,87.50
2019-02-20T07:17:36.396Z,85.10
2019-02-20T07:20:51.481Z,81.70
2019-02-20T07:23:35.793Z,76.50
2019-02-20T07:26:34.227Z,73.00
2019-02-20T07:29:44.952Z,65.90
2019-02-20T07:32:16.494Z,59.00
2019-02-20T07:34:44.984Z,52.00
2019-02-20T07:37:12.483Z,46.40
2019-02-20T07:39:39.935Z,43.50
2019-02-20T07:42:10.017Z,38.60
2019-02-20T07:44:37.642Z,35.00
2019-02-20T07:47:06.146Z,31.80
2019-02-20T07:49:33.719Z,28.80
2019-02-20T07:52:01.145Z,26.60
2019-02-20T07:54:28.601Z,25.40
2019-02-20T07:56:56.110Z,24.10
2019-02-20T07:59:23.614Z,23.20
2019-02-20T08:01:51.100Z,22.20
2019-02-20T08:04:18.553Z,22.10
2019-02-20T08:06:45.978Z,20.80
2019-02-20T08:09:27.350Z,20.00
2019-02-20T08:11:54.763Z,19.50
2019-02-20T08:14:22.394Z,18.80
2019-02-20T08:16:52.661Z,18.90
2019-02-20T08:19:21.770Z,18.80
2019-02-20T08:21:50.400Z,18.70
2019-02-20T08:24:18.073Z,18.10
2019-02-20T08:26:45.633Z,17.90
2019-02-20T08:29:14.603Z,17.30
2019-02-20T08:31:42.246Z,18.10
2019-02-20T08:34:10.058Z,17.90
2019-02-20T08:36:38.174Z,17.70
2019-02-20T08:39:06.326Z,17.40
2019-02-20T08:41:36.706Z,17.80
2019-02-20T08:44:04.718Z,17.90
2019-02-20T08:46:32.482Z,16.90
2019-02-20T08:49:01.320Z,15.80
2019-02-20T08:51:29.588Z,15.00
2019-02-20T08:53:57.114Z,14.70
2019-02-20T08:56:24.988Z,14.10
2019-02-20T08:58:52.905Z,13.50
2019-02-20T09:01:21.715Z,13.00
2019-02-20T09:03:49.878Z,12.40
2019-02-20T09:06:18.407Z,11.90
2019-02-20T09:08:46.462Z,11.30
2019-02-20T09:11:15.631Z,11.20
2019-02-20T09:13:43.042Z,11.20
2019-02-20T09:16:10.486Z,11.00
2019-02-20T09:18:37.891Z,11.00
2019-02-20T09:21:05.325Z,10.60
2019-02-20T09:23:32.765Z,10.40
2019-02-20T09:26:00.279Z,10.10
2019-02-20T09:28:27.853Z,9.80
2019-02-20T09:30:55.268Z,9.70
2019-02-20T09:33:22.897Z,9.50
2019-02-20T09:35:50.301Z,9.20
2019-02-20T09:38:17.862Z,8.90
2019-02-20T09:40:45.345Z,8.90
2019-02-20T09:43:13.881Z,9.10
2019-02-20T09:45:42.868Z,9.00
2019-02-20T09:48:10.827Z,9.10
2019-02-20T09:50:38.324Z,9.00
2019-02-20T09:53:05.740Z,8.70
2019-02-20T09:55:33.124Z,8.40
2019-02-20T09:58:00.609Z,8.40
2019-02-20T10:00:28.017Z,8.20
2019-02-20T10:02:55.441Z,8.10
2019-02-20T10:05:22.922Z,8.00
2019-02-20T10:07:50.352Z,7.80
2019-02-20T10:10:17.821Z,7.80
2019-02-20T10:12:45.240Z,7.80
2019-02-20T10:15:12.743Z,7.60
2019-02-20T10:17:40.259Z,7.70
2019-02-20T10:20:08.532Z,7.40
2019-02-20T10:22:35.999Z,7.00
2019-02-20T10:25:03.555Z,6.80
2019-02-20T10:27:30.976Z,6.60
2019-02-20T10:29:59.449Z,6.60
2019-02-20T10:32:27.869Z,6.40
2019-02-20T10:34:55.332Z,6.50
2019-02-20T10:37:22.799Z,6.30
2019-02-20T10:39:50.320Z,6.10
2019-02-20T10:42:18.734Z,6.00
2019-02-20T10:44:46.165Z,5.70
2019-02-20T10:47:14.516Z,6.10
2019-02-20T10:49:41.977Z,6.00
2019-02-20T10:52:09.406Z,5.70
2019-02-20T10:54:36.875Z,5.70
2019-02-20T10:57:04.275Z,6.00
2019-02-20T10:59:31.813Z,5.90
2019-02-20T11:01:59.239Z,5.90
2019-02-20T11:04:26.642Z,6.60
2019-02-20T11:06:54.109Z,6.90
2019-02-20T11:09:21.575Z,7.80
2019-02-20T11:11:48.993Z,8.50
2019-02-20T11:14:16.730Z,8.80
2019-02-20T11:16:44.423Z,9.20
2019-02-20T11:19:11.972Z,9.80
2019-02-20T11:21:39.708Z,10.60
2019-02-20T11:24:07.125Z,11.20
2019-02-20T11:26:43.317Z,11.70
2019-02-20T11:29:03.885Z,11.90
2019-02-20T11:31:31.461Z,12.40
2019-02-20T11:33:58.862Z,12.80
2019-02-20T11:36:26.342Z,13.40
2019-02-20T11:38:53.814Z,13.50
2019-02-20T11:41:21.222Z,13.90
2019-02-20T11:43:48.618Z,14.20
2019-02-20T11:46:15.982Z,14.40
2019-02-20T11:48:43.383Z,15.00
2019-02-20T11:51:10.951Z,15.50
2019-02-20T11:53:38.447Z,16.50
2019-02-20T11:56:05.942Z,16.80
2019-02-20T11:58:33.562Z,17.00
2019-02-20T12:01:01.082Z,17.20
2019-02-20T12:03:28.561Z,17.60
2019-02-20T12:05:55.980Z,17.50
2019-02-20T12:08:23.444Z,17.50
2019-02-20T12:10:50.846Z,17.60
2019-02-20T12:13:18.331Z,17.90
2019-02-20T12:15:45.782Z,17.40
2019-02-20T12:18:17.432Z,17.80
2019-02-20T12:20:42.779Z,17.80
2019-02-20T12:23:10.198Z,17.90
2019-02-20T12:25:37.636Z,17.80
2019-02-20T12:28:05.098Z,17.80
2019-02-20T12:30:32.585Z,18.50
2019-02-20T12:33:00.026Z,18.30
2019-02-20T12:35:27.454Z,18.20
2019-02-20T12:37:54.941Z,18.20
2019-02-20T12:40:22.390Z,17.60
2019-02-20T12:42:49.838Z,16.60
2019-02-20T12:45:17.432Z,15.80
2019-02-20T12:47:44.918Z,15.40
2019-02-20T12:50:12.466Z,15.50
2019-02-20T12:52:40.999Z,15.10
2019-02-20T12:55:08.545Z,15.30
2019-02-20T12:57:36.145Z,15.20
2019-02-20T13:00:04.389Z,15.30
2019-02-20T13:02:33.719Z,15.10
2019-02-20T13:05:01.232Z,14.30
2019-02-20T13:07:29.149Z,14.10
2019-02-20T13:09:56.655Z,13.60
2019-02-20T13:12:24.098Z,13.60
2019-02-20T13:14:51.628Z,13.00
2019-02-20T13:17:19.447Z,12.90
2019-02-20T13:19:47.013Z,13.00
2019-02-20T13:22:14.474Z,13.00
2019-02-20T13:24:43.886Z,12.80
2019-02-20T13:27:11.551Z,13.00
2019-02-20T13:29:39.152Z,12.60
2019-02-20T13:32:06.661Z,12.80
2019-02-20T13:34:34.270Z,12.40
2019-02-20T13:37:01.918Z,12.70
2019-02-20T13:39:29.551Z,12.80
2019-02-20T13:42:07.648Z,12.60
2019-02-20T13:44:36.020Z,12.20
2019-02-20T13:47:04.958Z,12.80
2019-02-20T13:49:32.496Z,13.20
2019-02-20T13:52:00.005Z,14.20
2019-02-20T13:54:27.449Z,15.50
2019-02-20T13:57:01.637Z,16.50
2019-02-20T13:59:24.629Z,17.30
2019-02-20T14:01:52.621Z,18.40
2019-02-20T14:04:20.379Z,18.50
2019-02-20T14:06:47.909Z,18.30
2019-02-20T14:09:15.370Z,18.80
2019-02-20T14:11:43.821Z,19.30
2019-02-20T14:14:12.640Z,19.80
2019-02-20T14:16:40.094Z,20.10
2019-02-20T14:19:07.695Z,20.60
2019-02-20T14:21:35.261Z,21.40
2019-02-20T14:24:02.730Z,22.00
2019-02-20T14:26:31.281Z,22.40
2019-02-20T14:28:58.746Z,23.20
2019-02-20T14:31:26.270Z,23.30
2019-02-20T14:33:54.041Z,23.80
2019-02-20T14:36:21.654Z,23.90
2019-02-20T14:38:50.445Z,24.00
2019-02-20T14:41:19.204Z,23.50
2019-02-20T14:43:46.802Z,23.50
2019-02-20T14:46:14.324Z,23.50
2019-02-20T14:48:41.867Z,23.20
2019-02-20T14:51:09.540Z,22.60
2019-02-20T14:53:37.121Z,22.60
2019-02-20T14:56:04.970Z,23.00
2019-02-20T14:58:32.636Z,23.30
2019-02-20T15:01:00.235Z,23.70
2019-02-20T15:03:29.657Z,24.10
2019-02-20T15:05:57.126Z,24.60
2019-02-20T15:08:24.599Z,25.00
2019-02-20T15:10:52.090Z,25.00
2019-02-20T15:13:19.910Z,24.80
2019-02-20T15:15:47.520Z,25.00
2019-02-20T15:18:15.008Z,25.10
2019-02-20T15:20:42.469Z,25.20
2019-02-20T15:23:10.156Z,25.90
2019-02-20T15:25:37.787Z,26.50
2019-02-20T15:28:05.255Z,27.20
2019-02-20T15:30:32.820Z,27.90
2019-02-20T15:33:00.357Z,28.10
2019-02-20T15:35:28.052Z,28.20
2019-02-20T15:37:55.686Z,28.60
2019-02-20T15:40:23.153Z,29.30
2019-02-20T15:42:50.712Z,29.20
2019-02-20T15:45:18.236Z,29.40
2019-02-20T15:47:45.793Z,29.50
2019-02-20T15:50:14.081Z,30.60
2019-02-20T15:52:41.708Z,31.30
2019-02-20T15:55:11.328Z,32.10
2019-02-20T15:57:38.756Z,32.50
2019-02-20T16:00:08.281Z,33.40
2019-02-20T16:02:36.785Z,34.20
2019-02-20T16:05:08.805Z,35.30
2019-02-20T16:07:38.212Z,35.70
2019-02-20T16:10:08.315Z,36.80
2019-02-20T16:12:35.930Z,36.90
2019-02-20T16:15:04.110Z,38.20
2019-02-20T16:17:32.111Z,39.20
2019-02-20T16:19:59.721Z,39.80
2019-02-20T16:22:27.354Z,40.00
2019-02-20T16:24:55.259Z,40.90
2019-02-20T16:27:24.095Z,41.20
2019-02-20T16:29:51.784Z,42.40
2019-02-20T16:32:19.359Z,42.90
2019-02-20T16:34:46.867Z,43.60
2019-02-20T16:37:14.637Z,43.60
2019-02-20T16:39:42.138Z,44.10
2019-02-20T16:42:10.697Z,45.90
2019-02-20T16:44:38.170Z,45.20
2019-02-20T16:47:05.783Z,45.90
2019-02-20T16:49:33.398Z,46.10
2019-02-20T16:52:01.041Z,46.80
2019-02-20T16:54:28.833Z,48.10
2019-02-20T16:56:56.431Z,49.10
2019-02-20T16:59:24.243Z,49.30
2019-02-20T17:01:53.061Z,50.80
2019-02-20T17:04:21.678Z,51.10
2019-02-20T17:06:49.427Z,51.70
2019-02-20T17:09:16.870Z,52.50
2019-02-20T17:11:44.335Z,52.80
2019-02-20T17:14:11.854Z,52.80
2019-02-20T17:16:39.740Z,53.10
2019-02-20T17:19:07.306Z,53.40
2019-02-20T17:21:34.767Z,55.10
2019-02-20T17:24:02.383Z,55.50
2019-02-20T17:26:30.073Z,54.60
2019-02-20T17:28:58.184Z,56.90
2019-02-20T17:31:25.609Z,57.50
2019-02-20T17:33:53.530Z,56.10
2019-02-20T17:36:21.078Z,57.40
2019-02-20T17:38:48.613Z,57.40
2019-02-20T17:41:17.258Z,57.40
2019-02-20T17:43:45.188Z,58.70
2019-02-20T17:46:12.722Z,59.60
2019-02-20T17:48:40.249Z,61.00
2019-02-20T17:51:07.797Z,62.20
2019-02-20T17:53:35.455Z,62.20
2019-02-20T17:56:03.049Z,60.30
2019-02-20T17:58:30.515Z,61.20
2019-02-20T18:00:59.769Z,61.40
2019-02-20T18:03:27.334Z,62.90
2019-02-20T18:05:54.899Z,64.20
2019-02-20T18:08:22.498Z,65.50
2019-02-20T18:10:49.949Z,65.90
2019-02-20T18:13:19.606Z,67.70
2019-02-20T18:15:47.080Z,68.90
2019-02-20T18:18:14.699Z,69.40
2019-02-20T18:20:43.414Z,68.30
2019-02-20T18:23:10.983Z,67.60
2019-02-20T18:25:38.421Z,67.60
2019-02-20T18:28:06.569Z,67.40
2019-02-20T18:30:34.226Z,68.10
2019-02-20T18:33:01.774Z,67.70
2019-02-20T18:35:29.559Z,68.10
2019-02-20T18:37:57.056Z,69.20
2019-02-20T18:40:25.272Z,69.40
2019-02-20T18:42:52.911Z,68.90
2019-02-20T18:45:20.702Z,69.20
2019-02-20T18:47:48.297Z,69.80
2019-02-20T18:50:16.101Z,69.80
2019-02-20T18:52:43.654Z,70.50
2019-02-20T18:55:11.181Z,71.30
2019-02-20T18:57:38.782Z,71.50
2019-02-20T19:00:09.170Z,73.20
2019-02-20T19:02:38.574Z,73.50
2019-02-20T19:05:06.774Z,73.00
2019-02-20T19:07:36.025Z,74.10
2019-02-20T19:10:06.296Z,73.50
2019-02-20T19:13:26.929Z,73.50
2019-02-20T19:16:38.912Z,74.50
2019-02-20T19:19:40.142Z,74.30
2019-02-20T19:23:07.290Z,74.30
2019-02-20T19:26:16.235Z,74.30
2019-02-20T19:29:29.592Z,74.50
2019-02-20T19:32:21.465Z,74.10
2019-02-20T19:35:28.178Z,73.50
2019-02-20T19:38:58.414Z,75.20
2019-02-20T19:42:00.226Z,74.80
2019-02-20T19:45:03.084Z,75.90
2019-02-20T19:48:18.953Z,75.20
2019-02-20T19:51:26.722Z,75.80
2019-02-20T19:54:10.397Z,76.50
2019-02-20T19:57:25.774Z,77.30
2019-02-20T20:00:34.229Z,77.10
2019-02-20T20:03:13.029Z,76.50
2019-02-20T20:06:37.598Z,76.90
2019-02-20T20:09:30.641Z,76.90
2019-02-20T20:12:52.187Z,76.70
2019-02-20T20:16:19.479Z,77.10
2019-02-20T20:19:37.656Z,77.40
2019-02-20T20:22:37.968Z,77.80
2019-02-20T20:25:48.957Z,77.30
2019-02-20T20:28:28.931Z,77.60
2019-02-20T20:31:30.284Z,78.00
2019-02-20T20:34:24.652Z,77.80
2019-02-20T20:37:32.018Z,77.40
2019-02-20T20:40:32.376Z,77.30
2019-02-20T20:43:37.530Z,76.90
2019-02-20T20:46:30.655Z,76.70
2019-02-20T20:49:39.716Z,76.30
2019-02-20T20:52:38.960Z,76.50
2019-02-20T20:55:43.651Z,76.10
2019-02-20T20:58:48.760Z,75.80
2019-02-20T21:01:44.975Z,75.90
2019-02-20T21:04:52.916Z,76.10
2019-02-20T21:07:51.063Z,75.80
2019-02-20T21:10:59.473Z,75.90
2019-02-20T21:14:17.244Z,76.10
2019-02-20T21:17:08.523Z,76.10
2019-02-20T21:20:38.682Z,76.10
2019-02-20T21:23:34.309Z,76.50
2019-02-20T21:26:55.702Z,76.50
2019-02-20T21:29:40.793Z,77.10
2019-02-20T21:33:00.819Z,77.10
2019-02-20T21:36:08.527Z,77.30
2019-02-20T21:39:11.452Z,76.90
2019-02-20T21:42:10.869Z,77.40
2019-02-20T21:45:10.503Z,77.10
2019-02-20T21:48:28.714Z,76.70
2019-02-20T21:51:20.791Z,75.90
2019-02-20T21:54:22.914Z,77.10
2019-02-20T21:57:05.799Z,77.60
2019-02-20T22:00:11.689Z,79.10
2019-02-20T22:03:07.583Z,78.60
2019-02-20T22:06:09.792Z,77.60
2019-02-20T22:09:31.033Z,77.60
2019-02-20T22:12:24.586Z,77.60
2019-02-20T22:15:49.464Z,79.30
2019-02-20T22:19:01.637Z,80.20
2019-02-20T22:22:05.825Z,79.90
2019-02-20T22:24:57.823Z,81.40
2019-02-20T22:28:13.320Z,82.30
2019-02-20T22:31:02.315Z,81.50
2019-02-20T22:34:09.146Z,81.90
2019-02-20T22:37:29.009Z,81.00
2019-02-20T22:40:23.624Z,80.40
2019-02-20T22:43:22.040Z,81.70
2019-02-20T22:46:10.126Z,82.50
2019-02-20T22:49:15.773Z,82.50
2019-02-20T22:52:20.802Z,82.70
2019-02-20T22:55:22.958Z,82.50
2019-02-20T22:58:00.873Z,82.30
2019-02-20T23:01:21.280Z,83.00
2019-02-20T23:04:27.534Z,83.60
2019-02-20T23:07:07.797Z,83.40
2019-02-20T23:09:59.317Z,83.40
2019-02-20T23:13:12.066Z,83.80
2019-02-20T23:15:39.754Z,83.40
2019-02-20T23:18:07.276Z,83.20
2019-02-20T23:20:34.781Z,83.00
2019-02-20T23:23:02.380Z,83.60
2019-02-20T23:25:29.806Z,82.50
2019-02-20T23:27:57.247Z,82.50
2019-02-20T23:30:24.734Z,82.50
2019-02-20T23:32:52.399Z,82.50
2019-02-20T23:35:19.879Z,82.70
2019-02-20T23:37:47.365Z,81.90
2019-02-20T23:40:14.809Z,82.10
2019-02-20T23:42:42.264Z,82.70
2019-02-20T23:45:09.805Z,82.30
2019-02-20T23:47:37.246Z,82.10
2019-02-20T23:50:05.127Z,81.90
2019-02-20T23:52:32.585Z,81.70
2019-02-20T23:55:00.199Z,82.10
2019-02-20T23:57:28.199Z,82.30
2019-02-20T23:59:55.690Z,82.10
